• Join FlightAware (Why Join?)
  • Login
  • US Flag 
01:35PM EDT


 

Airport Tracker/Info


-or-


 

Live Flight TrackerFlight Track Log ✈ N975TB ✈ 07-Jul-2013 ✈ KMSV - KRYY

Flight Track Log - Related Links

Times and Time Zones

All times are in EDT time to prevent confusion due to time zone crossing. See the N975TB flight status page for this flight to view local times or setup timezone preferences in your user account.

Time Position Orientation Groundspeed Altitude Reporting Facility
EDT Latitude Longitude Course Direction KTS MPH feet Rate Location/Type
11:14AM 41.6667 -74.7667 166° South 141 162 3,000  Level New York TRACON
11:15AM 41.6167 -74.7500 166° South 146 168 4,500 1,080 Climbing New York TRACON
11:16AM 41.5667 -74.7333 166° South 171 197 5,300 300 Climbing New York TRACON
11:18AM 41.5187 -74.8071 217° Southwest  Level Estimated
11:18AM 41.5314 -74.8253 217° Southwest 173 199 5,400  Level New York Center
11:19AM 41.5294 -74.8806 267° West 180 207 6,000 780 Climbing New York Center
11:20AM 41.5244 -74.9661 266° West 201 231 7,000 900 Climbing New York Center
11:21AM 41.5178 -75.0378 263° West 207 238 7,900 840 Climbing New York Center
11:22AM 41.5111 -75.1064 263° West 197 227 8,800 960 Climbing New York Center
11:23AM 41.5067 -75.1672 264° West 197 227 9,900 1,440 Climbing New York Center
11:24AM 41.5025 -75.2222 264° West 175 201 11,700 1,560 Climbing New York Center
11:25AM 41.4942 -75.2800 259° West 151 174 13,100 1,380 Climbing New York Center
11:26AM 41.4900 -75.3322 264° West 146 168 14,500 1,260 Climbing New York Center
11:27AM 41.4858 -75.3872 264° West 146 168 15,700 1,260 Climbing New York Center
11:28AM 41.4797 -75.4367 261° West 151 174 17,000 1,140 Climbing New York Center
11:29AM 41.4794 -75.4947 270° West 158 182 18,000 900 Climbing New York Center
11:30AM 41.4894 -75.5592 282° West 158 182 18,900 960 Climbing New York Center
11:31AM 41.5139 -75.6219 297° West 173 199 20,000 960 Climbing New York Center
11:32AM 41.5381 -75.6931 294° West 194 223 20,900 960 Climbing New York Center
11:33AM 41.5542 -75.7581 288° West 194 223 22,000 1,020 Climbing New York Center
11:34AM 41.5744 -75.8231 293° West 194 223 23,000 960 Climbing New York Center
11:35AM 41.5942 -75.8914 291° West 194 223 24,000 900 Climbing New York Center
11:36AM 41.6142 -75.9622 291° West 199 229 24,900 480 Climbing New York Center
11:37AM 41.6356 -76.0417 290° West 205 236 25,000  Climbing New York Center
11:38AM 41.6589 -76.1267 290° West 227 261 25,000 -60 Level New York Center
11:39AM 41.6806 -76.1978 292° West 243 280 24,900 -60 Descending New York Center
11:40AM 41.6528 -76.3039 251° West 244 281 24,900 900 Level New York Center
11:41AM 41.6225 -76.3764 241° Southwest 234 269 26,800 1,200 Climbing New York Center
11:42AM 41.5944 -76.4406 240° Southwest 221 254 27,400 600 Climbing New York Center
11:43AM 41.5661 -76.5075 241° Southwest 215 247 28,000 300 Climbing New York Center
11:44AM 41.5353 -76.5853 242° Southwest 222 255 28,000  Level New York Center
11:45AM 41.5003 -76.6625 239° Southwest 233 268 28,000 -60 Level New York Center
11:46AM 41.4647 -76.7453 240° Southwest 244 281 27,900 -60 Descending New York Center
11:47AM 41.4294 -76.8278 240° Southwest 254 292 27,900  Level New York Center
11:48AM 41.3939 -76.9106 240° Southwest 259 298 27,900  Level New York Center
11:49AM 41.3564 -76.9928 239° Southwest 259 298 28,000  Climbing New York Center
11:50AM 41.3206 -77.0750 240° Southwest 259 298 27,900  Descending New York Center
11:51AM 41.2850 -77.1575 240° Southwest 264 304 28,000  Climbing New York Center
11:52AM 41.2472 -77.2394 239° Southwest 264 304 27,900 -60 Descending New York Center
11:53AM 41.2111 -77.3269 241° Southwest 264 304 27,900  Level New York Center
11:54AM 41.1778 -77.4036 240° Southwest 264 304 28,000  Climbing New York Center
11:55AM 41.1419 -77.4856 240° Southwest 259 298 27,900 -60 Descending New York Center
11:56AM 41.0981 -77.5583 231° Southwest 259 298 27,900  Level New York Center
11:57AM 41.0522 -77.6336 231° Southwest 264 304 27,900  Level New York Center
11:58AM 41.0061 -77.7061 230° Southwest 264 304 28,000  Climbing New York Center
11:59AM 40.9564 -77.7725 225° Southwest 264 304 27,900  Descending New York Center
12:04PM 40.7522 -78.0531 226° Southwest 250 288 28,000  Climbing Cleveland Center
12:05PM 40.7056 -78.1208 228° Southwest 250 288 28,000  Level Cleveland Center
12:06PM 40.6569 -78.1883 227° Southwest 250 288 28,000 -60 Level Cleveland Center
12:07PM 40.6083 -78.2556 226° Southwest 250 288 27,900  Descending Cleveland Center
12:08PM 40.5619 -78.3256 229° Southwest 250 288 28,000  Climbing Cleveland Center
12:09PM 40.5111 -78.3928 225° Southwest 250 288 28,000 -60 Level Cleveland Center
12:10PM 40.4622 -78.4628 227° Southwest 250 288 27,900  Descending Cleveland Center
12:11PM 40.4136 -78.5325 228° Southwest 250 288 28,000  Climbing Cleveland Center
12:12PM 40.3667 -78.5992 227° Southwest 250 288 28,000  Level Cleveland Center
12:13PM 40.3181 -78.6689 228° Southwest 250 288 28,000  Level Cleveland Center
12:14PM 40.2692 -78.7383 227° Southwest 250 288 28,000  Level Cleveland Center
12:15PM 40.2222 -78.8047 227° Southwest 250 288 28,000  Level Cleveland Center
12:16PM 40.1839 -78.8956 241° Southwest 257 296 28,000  Level Cleveland Center
12:17PM 40.1517 -78.9778 243° Southwest 257 296 28,000  Level Cleveland Center
12:18PM 40.1194 -79.0572 242° Southwest 257 296 28,000  Level Cleveland Center
12:19PM 40.0850 -79.1367 240° Southwest 252 290 28,000  Level Cleveland Center
12:20PM 40.0589 -79.2025 243° Southwest 252 290 28,000  Level Cleveland Center
12:21PM 40.0222 -79.2817 239° Southwest 246 283 28,000  Level Cleveland Center
12:22PM 39.9792 -79.3503 231° Southwest 246 283 28,000  Level Cleveland Center
12:23PM 39.9342 -79.4161 228° Southwest 251 289 28,000  Level Cleveland Center
12:24PM 39.8908 -79.4844 230° Southwest 251 289 28,000  Level Cleveland Center
12:25PM 39.8519 -79.5528 233° Southwest 251 289 28,000  Level Cleveland Center
12:26PM 39.8278 -79.6369 250° West 251 289 28,000  Level Cleveland Center
12:27PM 39.8033 -79.7211 249° West 251 289 28,000  Level Cleveland Center
12:28PM 39.7811 -79.8050 251° West 251 289 28,000  Level Cleveland Center
12:29PM 39.7586 -79.8892 251° West 251 289 28,000  Level Cleveland Center
12:30PM 39.7361 -79.9811 252° West 251 289 28,000  Level Cleveland Center
12:31PM 39.7117 -80.0675 250° West 251 289 28,000  Level Cleveland Center
12:32PM 39.6933 -80.1514 254° West 251 289 28,000  Level Cleveland Center
12:33PM 39.6728 -80.2378 253° West 251 289 28,000 -60 Level Cleveland Center
12:34PM 39.6500 -80.3242 251° West 251 289 27,900 -60 Descending Cleveland Center
12:35PM 39.6292 -80.4106 253° West 251 289 27,900  Level Cleveland Center
12:36PM 39.6106 -80.4889 253° West 246 283 28,000  Climbing Cleveland Center
12:37PM 39.5919 -80.5694 253° West 246 283 27,900  Descending Cleveland Center
12:38PM 39.5772 -80.6531 257° West 246 283 28,000  Climbing Cleveland Center
12:39PM 39.5606 -80.7339 255° West 241 277 28,000  Level Cleveland Center
12:40PM 39.5269 -80.7956 235° Southwest 241 277 28,000  Level Cleveland Center
12:41PM 39.4461 -80.8550 210° Southwest 226 260 28,000  Level Indianapolis Center
12:42PM 39.3919 -80.9008 213° Southwest 231 266 28,000  Level Indianapolis Center
12:43PM 39.3364 -80.9481 213° Southwest 237 273 28,000  Level Indianapolis Center
12:44PM 39.2806 -80.9958 214° Southwest 239 275 28,000  Level Indianapolis Center
12:45PM 39.2247 -81.0422 213° Southwest 238 274 28,000  Level Indianapolis Center
12:46PM 39.1697 -81.0892 213° Southwest 238 274 28,000  Level Indianapolis Center
12:47PM 39.1044 -81.1444 213° Southwest 235 270 28,000  Level Indianapolis Center
12:48PM 39.0492 -81.1900 213° Southwest 235 270 28,000  Level Indianapolis Center
12:49PM 38.9944 -81.2369 214° Southwest 235 270 28,000  Level Indianapolis Center
12:50PM 38.9406 -81.2814 213° Southwest 232 267 28,000  Level Indianapolis Center
12:51PM 38.8864 -81.3267 213° Southwest 232 267 28,000  Level Indianapolis Center
12:52PM 38.8319 -81.3717 213° Southwest 232 267 28,000  Level Indianapolis Center
12:53PM 38.7778 -81.4164 213° Southwest 230 265 28,000  Level Indianapolis Center
12:54PM 38.7183 -81.4667 213° Southwest 233 268 28,000  Level Indianapolis Center
12:55PM 38.6542 -81.5186 212° Southwest 234 269 28,000  Level Indianapolis Center
12:56PM 38.5989 -81.5647 213° Southwest 235 270 28,000  Level Indianapolis Center
12:57PM 38.5417 -81.6125 213° Southwest 237 273 28,000  Level Indianapolis Center
12:59PM 38.4867 -81.6575 213° Southwest 234 269 28,000  Level Indianapolis Center
01:00PM 38.4319 -81.7033 213° Southwest 235 270 28,000  Level Indianapolis Center
01:01PM 38.3758 -81.7486 212° Southwest 237 273 28,000  Level Indianapolis Center
01:02PM 38.3169 -81.7842 205° Southwest 237 273 28,000  Level Indianapolis Center
01:03PM 38.2558 -81.8111 199° South 233 268 28,000  Level Indianapolis Center
01:04PM 38.1939 -81.8389 199° South 235 270 28,000  Level Indianapolis Center
01:05PM 38.1206 -81.8711 199° South 233 268 28,000  Level Indianapolis Center
01:06PM 38.0569 -81.8978 198° South 238 274 28,000  Level Indianapolis Center
01:07PM 37.9950 -81.9253 199° South 236 272 28,000  Level Indianapolis Center
01:08PM 37.9336 -81.9522 199° South 234 269 28,000  Level Indianapolis Center
01:09PM 37.8703 -81.9803 199° South 238 274 28,000  Level Indianapolis Center
01:10PM 37.8000 -82.0086 198° South 239 275 28,000  Level Indianapolis Center
01:11PM 37.7383 -82.0367 200° South 236 272 28,000  Level Indianapolis Center
01:12PM 37.6744 -82.0639 199° South 241 277 28,000  Level Indianapolis Center
01:13PM 37.6131 -82.0914 200° South 235 270 28,000  Level Indianapolis Center
01:14PM 37.5497 -82.1178 198° South 237 273 28,000  Level Indianapolis Center
01:15PM 37.4769 -82.1497 199° South 237 273 28,000  Level Indianapolis Center
01:16PM 37.4144 -82.1758 198° South 236 272 28,000  Level Indianapolis Center
01:17PM 37.3539 -82.2014 199° South 230 265 28,000  Level Indianapolis Center
01:18PM 37.2944 -82.2269 199° South 226 260 28,000  Level Indianapolis Center
01:19PM 37.2364 -82.2514 199° South 221 254 28,000  Level Indianapolis Center
01:20PM 37.1778 -82.2767 199° South 221 254 28,000  Level Indianapolis Center
01:21PM 37.1069 -82.3061 198° South 228 262 28,000  Level Indianapolis Center
01:22PM 37.0461 -82.3336 200° South 230 265 28,000  Level Indianapolis Center
01:23PM 36.9844 -82.3589 198° South 231 266 28,000  Level Indianapolis Center
01:24PM 36.9228 -82.3844 198° South 231 266 28,000  Level Indianapolis Center
01:25PM 36.8614 -82.4106 199° South 232 267 28,000  Level Indianapolis Center
01:26PM 36.8042 -82.4481 208° Southwest 232 267 28,000  Level Indianapolis Center
01:27PM 36.7467 -82.4867 208° Southwest 234 269 28,000  Level Indianapolis Center
01:28PM 36.6803 -82.5319 209° Southwest 232 267 28,000  Level Indianapolis Center
01:29PM 36.6222 -82.5711 208° Southwest 235 270 28,000  Level Indianapolis Center
01:30PM 36.5733 -82.6014 206° Southwest 237 273 28,000  Level Atlanta Center
01:31PM 36.5236 -82.6386 211° Southwest 237 273 28,000  Level Atlanta Center
01:32PM 36.4636 -82.6758 207° Southwest 237 273 28,000  Level Atlanta Center
01:33PM 36.4078 -82.7153 210° Southwest 237 273 28,000  Level Atlanta Center
01:34PM 36.3519 -82.7550 210° Southwest 237 273 28,000  Level Atlanta Center
01:35PM 36.2919 -82.7944 208° Southwest 243 280 28,000  Level Atlanta Center
01:36PM 36.2358 -82.8314 208° Southwest 243 280 28,000  Level Atlanta Center
01:37PM 36.1778 -82.8708 209° Southwest 238 274 28,000  Level Atlanta Center
01:38PM 36.1219 -82.9103 210° Southwest 238 274 28,000  Level Atlanta Center
01:39PM 36.0639 -82.9469 207° Southwest 238 274 28,000  Level Atlanta Center
01:40PM 36.0058 -82.9864 209° Southwest 238 274 28,000  Level Atlanta Center
01:41PM 35.9478 -83.0256 209° Southwest 238 274 28,000  Level Atlanta Center
01:42PM 35.8897 -83.0647 209° Southwest 244 281 28,000  Level Atlanta Center
01:43PM 35.8294 -83.1039 208° Southwest 244 281 28,000  Level Atlanta Center
01:44PM 35.7650 -83.1481 209° Southwest 250 288 28,000  Level Atlanta Center
01:45PM 35.7069 -83.1844 207° Southwest 244 281 28,000  Level Atlanta Center
01:46PM 35.6467 -83.2261 209° Southwest 249 287 28,000  Level Atlanta Center
01:47PM 35.5906 -83.2675 211° Southwest 249 287 28,000 -240 Level Atlanta Center
01:48PM 35.5283 -83.3064 207° Southwest 249 287 27,600 -720 Descending Atlanta Center
01:49PM 35.4639 -83.3503 209° Southwest 249 287 26,600 -1,020 Descending Atlanta Center
01:50PM 35.3953 -83.3942 208° Southwest 262 302 25,600 -1,140 Descending Atlanta Center
01:51PM 35.3308 -83.4328 206° Southwest 268 308 24,400 -1,260 Descending Atlanta Center
01:52PM 35.2706 -83.4767 211° Southwest 262 302 23,100 -1,380 Descending Atlanta Center
01:53PM 35.2103 -83.5125 206° Southwest 256 295 21,700 -1,320 Descending Atlanta Center
01:54PM 35.1561 -83.5511 210° Southwest 251 289 20,500 -1,440 Descending Atlanta Center
01:55PM 35.0917 -83.5919 207° Southwest 246 283 18,900 -1,380 Descending Atlanta Center
01:56PM 35.0353 -83.6278 207° Southwest 246 283 17,800 -960 Descending Atlanta Center
01:57PM 34.9833 -83.6611 208° Southwest 232 267 17,000 -900 Descending Atlanta Center
01:58PM 34.9375 -83.6867 205° Southwest 220 253 16,100 -1,020 Descending Atlanta Center
01:59PM 34.8853 -83.7197 207° Southwest 207 238 15,000 -1,080 Descending Atlanta Center
02:00PM 34.8353 -83.7528 208° Southwest 202 232 14,000 -960 Descending Atlanta Center
02:01PM 34.7875 -83.7808 206° Southwest 202 232 13,100 -900 Descending Atlanta Center
02:02PM 34.7394 -83.8114 208° Southwest 197 227 12,300 -780 Descending Atlanta Center
02:03PM 34.6936 -83.8392 206° Southwest 197 227 11,600 -780 Descending Atlanta Center
02:04PM 34.6478 -83.8669 207° Southwest 192 221 10,800 -780 Descending Atlanta Center
02:05PM 34.5978 -83.8975 207° Southwest 192 221 10,100 -720 Descending Atlanta Center
02:06PM 34.5478 -83.9303 208° Southwest 197 227 9,400 -660 Descending Atlanta Center
02:07PM 34.5017 -83.9581 206° Southwest 197 227 8,800 -720 Descending Atlanta Center
02:08PM 34.4517 -83.9883 207° Southwest 197 227 8,000 -480 Descending Atlanta Center
02:09PM 34.4036 -84.0211 209° Southwest 203 234 7,900 -60 Descending Atlanta Center
02:10PM 34.3642 -84.0614 220° Southwest 198 228 7,900  Level Atlanta Center
02:11PM 34.3181 -84.0992 214° Southwest 198 228 7,900 -60 Level Atlanta Center
02:12PM 34.2722 -84.1292 208° Southwest 193 222 7,800 -360 Descending Atlanta Center
02:13PM 34.2178 -84.1492 197° South 183 211 7,200 -720 Descending Atlanta Center
02:14PM 34.1700 -84.1669 197° South 183 211 6,400 -660 Descending Atlanta Center
02:15PM 34.1178 -84.1717 184° South 183 211 5,900 -360 Descending Atlanta Center
02:16PM 34.0656 -84.1767 185° South 189 217 5,700 -540 Descending Atlanta Center
02:17PM 34.0342 -84.2267 233° Southwest 179 206 4,900 -1,080 Descending Atlanta Center
02:18PM 34.0172 -84.2819 250° West 186 214 3,600 -1,020 Descending Atlanta Center
02:19PM 34.0172 -84.3269 270° West 153 176 2,900 -240 Descending Atlanta Center
02:22PM 34.0167 -84.4333 270° West 135 155 2,900  Level Atlanta TRACON
02:23PM 34.0167 -84.4667 270° West 108 124 2,900 -300 Level Atlanta TRACON
02:24PM 34.0167 -84.5167 270° West 109 125 2,300 -600 Descending Atlanta TRACON